South Jackson, Virginia
Current Conditions -  °F | °C
As of 1:35 PM on Sunday 21 Dec 2014 (Local Time) from K8W2 Reporting Station
Clear Clear  
Wind Chill: 42°   Ceiling: Unl
Heat Index: 42°   Visibility: 10mi
Dew Point: 27°   Wind: 3mph
Humidity: 56%   Direction: 120°ESE
Pressure: 30.24"   Gusts: NA
Location:  38.7716°N, 78.6966°W
Report Text: K8W2 211835Z AUTO 12003KT 10SM CLR 05/M03 A3024 RMK AO1 T00541027
Loading
Personal Weather Stations






























Interactive Weather Map New forecast layout! Learn more

10-Day Weather Forecast

Advertisements
Track Severe Weather on mobile